createdAt,value
2022-08-05T00:00:17.113Z,97221.28
2022-08-05T00:02:51.383Z,97229.59
2022-08-05T00:05:27.041Z,97224.44
2022-08-05T00:08:32.977Z,97222.03
2022-08-05T00:11:00.405Z,97218.50
2022-08-05T00:13:38.167Z,97217.31
2022-08-05T00:16:08.916Z,97213.69
2022-08-05T00:18:38.016Z,97213.25
2022-08-05T00:21:06.496Z,97212.47
2022-08-05T00:23:46.718Z,97210.88
2022-08-05T00:26:23.184Z,97206.53
2022-08-05T00:28:52.143Z,97204.19
2022-08-05T00:31:52.998Z,97200.25
2022-08-05T00:34:54.216Z,97208.22
2022-08-05T00:37:13.221Z,97195.88
2022-08-05T00:39:44.572Z,97202.97
2022-08-05T00:42:35.085Z,97200.19
2022-08-05T00:45:03.270Z,97200.19
2022-08-05T00:47:53.318Z,97198.59
2022-08-05T00:50:20.971Z,97206.41
2022-08-05T00:52:49.385Z,97204.44
2022-08-05T00:55:17.186Z,97200.09
2022-08-05T00:57:58.581Z,97202.81
2022-08-05T01:00:27.748Z,97206.72
2022-08-05T01:02:56.148Z,97203.44
2022-08-05T01:05:24.854Z,97201.81
2022-08-05T01:08:42.231Z,97201.38
2022-08-05T01:10:52.518Z,97199.03
2022-08-05T01:13:58.403Z,97190.78
2022-08-05T01:16:27.766Z,97197.88
2022-08-05T01:19:01.341Z,97191.53
2022-08-05T01:21:58.260Z,97192.94
2022-08-05T01:25:01.198Z,97179.88
2022-08-05T01:27:56.861Z,97189.78
2022-08-05T01:33:08.050Z,97183.09
2022-08-05T01:35:52.080Z,97182.34
2022-08-05T01:38:27.074Z,97185.91
2022-08-05T01:40:58.824Z,97187.03
2022-08-05T01:43:29.504Z,97191.38
2022-08-05T01:46:07.304Z,97182.72
2022-08-05T01:48:49.656Z,97181.97
2022-08-05T01:51:19.316Z,97179.16
2022-08-05T01:53:57.484Z,97183.84
2022-08-05T01:58:09.367Z,97185.53
2022-08-05T01:59:22.603Z,97181.25
2022-08-05T02:01:55.704Z,97186.34
2022-08-05T02:04:29.921Z,97179.16
2022-08-05T02:06:59.884Z,97184.66
2022-08-05T02:09:32.038Z,97183.41
2022-08-05T02:12:06.988Z,97181.91
2022-08-05T02:14:44.503Z,97184.72
2022-08-05T02:18:28.136Z,97183.16
2022-08-05T02:20:20.631Z,97187.09
2022-08-05T02:22:57.124Z,97187.91
2022-08-05T02:25:33.448Z,97187.97
2022-08-05T02:28:08.870Z,97186.41
2022-08-05T02:30:51.678Z,97186.00
2022-08-05T02:33:36.152Z,97187.91
2022-08-05T02:36:10.266Z,97190.72
2022-08-05T02:38:52.876Z,97185.16
2022-08-05T02:41:23.538Z,97185.50
2022-08-05T02:44:02.470Z,97179.09
2022-08-05T02:46:35.465Z,97179.91
2022-08-05T02:49:06.358Z,97178.41
2022-08-05T02:52:03.080Z,97171.66
2022-08-05T02:54:36.431Z,97170.78
2022-08-05T02:59:55.178Z,97158.13
2022-08-05T03:02:29.344Z,97157.75
2022-08-05T03:05:00.011Z,97162.03
2022-08-05T03:08:01.284Z,97161.97
2022-08-05T03:10:21.968Z,97160.03
2022-08-05T03:12:54.118Z,97160.41
2022-08-05T03:15:23.647Z,97168.22
2022-08-05T03:17:54.055Z,97170.19
2022-08-05T03:20:25.497Z,97170.94
2022-08-05T03:22:55.364Z,97167.75
2022-08-05T03:25:34.137Z,97161.47
2022-08-05T03:28:18.727Z,97165.44
2022-08-05T03:30:50.836Z,97162.69
2022-08-05T03:33:19.432Z,97158.34
2022-08-05T03:35:50.128Z,97161.91
2022-08-05T03:38:23.890Z,97151.81
2022-08-05T03:41:08.221Z,97146.72
2022-08-05T03:44:08.881Z,97142.91
2022-08-05T03:46:29.717Z,97139.84
2022-08-05T03:48:59.328Z,97143.16
2022-08-05T03:52:39.331Z,97139.25
2022-08-05T03:56:01.855Z,97143.19
2022-08-05T03:57:41.279Z,97143.59
2022-08-05T04:00:15.928Z,97142.41
2022-08-05T04:02:58.154Z,97142.81
2022-08-05T04:05:33.167Z,97161.03
2022-08-05T04:08:05.788Z,97201.53
2022-08-05T04:10:45.331Z,97171.94
2022-08-05T04:13:13.734Z,97212.59
2022-08-05T04:15:52.621Z,97185.47
2022-08-05T04:18:30.524Z,97175.41
2022-08-05T04:20:59.183Z,97192.84
2022-08-05T04:24:06.180Z,97188.66
2022-08-05T04:26:18.883Z,97184.00
2022-08-05T04:28:51.836Z,97185.41
2022-08-05T04:31:20.841Z,97186.81
2022-08-05T04:34:17.165Z,97204.84
2022-08-05T04:36:45.395Z,97218.63
2022-08-05T04:39:19.357Z,97207.13
2022-08-05T04:41:48.643Z,97216.38
2022-08-05T04:44:29.243Z,97209.56
2022-08-05T04:46:59.252Z,97214.13
2022-08-05T04:49:38.522Z,97229.28
2022-08-05T04:52:16.208Z,97210.53
2022-08-05T04:54:45.466Z,97220.19
2022-08-05T04:57:13.524Z,97214.06
2022-08-05T04:59:41.946Z,97222.38
2022-08-05T05:02:36.379Z,97218.50
2022-08-05T05:05:02.771Z,97219.09
2022-08-05T05:07:32.266Z,97219.25
2022-08-05T05:10:04.486Z,97209.97
2022-08-05T05:12:32.600Z,97209.75
2022-08-05T05:15:03.808Z,97217.28
2022-08-05T05:17:57.142Z,97210.84
2022-08-05T05:20:28.502Z,97201.66
2022-08-05T05:22:57.372Z,97208.34
2022-08-05T05:25:32.641Z,97208.63
2022-08-05T05:28:08.185Z,97202.50
2022-08-05T05:30:37.430Z,97217.00
2022-08-05T05:33:16.208Z,97219.00
2022-08-05T05:35:47.340Z,97226.47
2022-08-05T05:38:26.779Z,97219.31
2022-08-05T05:40:57.296Z,97236.63
2022-08-05T05:43:54.290Z,97231.22
2022-08-05T05:46:17.212Z,97238.50
2022-08-05T05:48:48.983Z,97244.75
2022-08-05T05:51:22.292Z,97249.47
2022-08-05T05:53:57.345Z,97251.44
2022-08-05T05:56:32.528Z,97263.91
2022-08-05T05:59:03.199Z,97264.34
2022-08-05T06:01:38.251Z,97267.28
2022-08-05T06:04:08.837Z,97283.56
2022-08-05T06:06:42.045Z,97284.63
2022-08-05T06:09:17.577Z,97293.53
2022-08-05T06:11:59.290Z,97298.22
2022-08-05T06:14:28.915Z,97310.72
2022-08-05T06:16:57.871Z,97311.59
2022-08-05T06:19:34.531Z,97305.41
2022-08-05T06:22:03.390Z,97310.34
2022-08-05T06:24:31.377Z,97324.31
2022-08-05T06:27:01.220Z,97328.34
2022-08-05T06:29:46.723Z,97342.13
2022-08-05T06:32:25.825Z,97344.03
2022-08-05T06:34:56.668Z,97333.81
2022-08-05T06:37:55.773Z,97341.72
2022-08-05T06:40:18.503Z,97339.31
2022-08-05T06:42:52.628Z,97339.97
2022-08-05T06:45:43.897Z,97337.28
2022-08-05T06:48:44.092Z,97331.03
2022-08-05T06:51:00.243Z,97342.66
2022-08-05T06:53:29.468Z,97348.47
2022-08-05T06:55:58.689Z,97339.69
2022-08-05T06:58:34.958Z,97340.00
2022-08-05T07:01:06.494Z,97339.00
2022-08-05T07:03:35.317Z,97348.78
2022-08-05T07:06:06.059Z,97347.59
2022-08-05T07:08:47.552Z,97361.34
2022-08-05T07:11:16.988Z,97370.94
2022-08-05T07:14:20.678Z,97374.97
2022-08-05T07:17:59.534Z,97390.22
2022-08-05T07:20:32.501Z,97392.16
2022-08-05T07:22:37.640Z,97394.72
2022-08-05T07:25:23.980Z,97394.22
2022-08-05T07:28:02.268Z,97400.31
2022-08-05T07:30:39.039Z,97399.91
2022-08-05T07:33:16.650Z,97392.66
2022-08-05T07:36:03.319Z,97386.41
2022-08-05T07:38:43.575Z,97395.06
2022-08-05T07:42:09.440Z,97402.28
2022-08-05T07:44:02.560Z,97410.91
2022-08-05T07:46:34.404Z,97416.00
2022-08-05T07:49:06.124Z,97416.91
2022-08-05T07:51:40.791Z,97417.16
2022-08-05T07:54:10.502Z,97414.81
2022-08-05T07:57:13.611Z,97417.38
2022-08-05T07:59:38.176Z,97416.06
2022-08-05T08:02:17.070Z,97420.09
2022-08-05T08:04:49.840Z,97418.63
2022-08-05T08:07:22.388Z,97416.81
2022-08-05T08:09:52.618Z,97420.84
2022-08-05T08:12:34.993Z,97417.00
2022-08-05T08:15:15.830Z,97425.00
2022-08-05T08:17:52.714Z,97429.34
2022-08-05T08:21:00.126Z,97429.41
2022-08-05T08:23:11.683Z,97416.88
2022-08-05T08:26:00.048Z,97421.53
2022-08-05T08:28:36.445Z,97421.34
2022-08-05T08:31:05.811Z,97426.25
2022-08-05T08:33:37.894Z,97420.31
2022-08-05T08:36:38.800Z,97421.03
2022-08-05T08:38:56.950Z,97420.59
2022-08-05T08:41:50.798Z,97427.34
2022-08-05T08:45:23.704Z,97434.16
2022-08-05T08:47:22.334Z,97427.84
2022-08-05T08:50:07.691Z,97428.16
2022-08-05T08:52:53.443Z,97433.81
2022-08-05T08:56:02.035Z,97427.66
2022-08-05T08:58:15.222Z,97434.38
2022-08-05T09:00:44.710Z,97428.97
2022-08-05T09:03:16.332Z,97430.16
2022-08-05T09:06:08.053Z,97434.94
2022-08-05T09:08:40.210Z,97436.84
2022-08-05T09:11:12.253Z,97438.22
2022-08-05T09:14:10.112Z,97445.88
2022-08-05T09:16:31.731Z,97445.31
2022-08-05T09:18:59.729Z,97450.03
2022-08-05T09:22:25.078Z,97450.38
2022-08-05T09:24:18.086Z,97451.00
2022-08-05T09:26:51.851Z,97454.84
2022-08-05T09:29:20.892Z,97454.06
2022-08-05T09:32:51.273Z,97449.06
2022-08-05T09:35:00.147Z,97461.19
2022-08-05T09:38:12.713Z,97453.44
2022-08-05T09:40:36.695Z,97457.66
2022-08-05T09:43:08.407Z,97445.66
2022-08-05T09:46:06.672Z,97440.28
2022-08-05T09:48:28.432Z,97447.19
2022-08-05T09:50:59.530Z,97449.91
2022-08-05T09:53:53.423Z,97443.94
2022-08-05T09:56:26.988Z,97440.88
2022-08-05T09:58:59.730Z,97437.59
2022-08-05T10:01:31.698Z,97438.25
2022-08-05T10:04:04.531Z,97431.91
2022-08-05T10:06:40.969Z,97421.75
2022-08-05T10:09:27.748Z,97424.97
2022-08-05T10:11:57.363Z,97417.72
2022-08-05T10:14:28.561Z,97409.19
2022-08-05T10:17:38.006Z,97405.22
2022-08-05T10:20:10.892Z,97407.94
2022-08-05T10:22:43.033Z,97402.97
2022-08-05T10:25:18.871Z,97403.94
2022-08-05T10:28:13.057Z,97401.91
2022-08-05T10:32:48.751Z,97400.00
2022-08-05T10:33:28.811Z,97402.69
2022-08-05T10:36:00.005Z,97402.22
2022-08-05T10:38:33.134Z,97404.88
2022-08-05T10:41:13.650Z,97403.13
2022-08-05T10:43:52.485Z,97404.53
2022-08-05T10:46:23.926Z,97391.88
2022-08-05T10:49:02.717Z,97398.38
2022-08-05T10:51:48.622Z,97394.16
2022-08-05T10:54:47.201Z,97400.59
2022-08-05T10:57:33.975Z,97391.56
2022-08-05T11:00:19.030Z,97405.81
2022-08-05T11:03:23.545Z,97404.78
2022-08-05T11:06:15.792Z,97391.59
2022-08-05T11:09:17.025Z,97388.91
2022-08-05T11:11:53.151Z,97378.16
2022-08-05T11:14:57.524Z,97381.19
2022-08-05T11:17:57.778Z,97382.84
2022-08-05T11:20:46.657Z,97384.34
2022-08-05T11:24:02.290Z,97379.09
2022-08-05T11:26:28.503Z,97394.47
2022-08-05T11:29:11.472Z,97392.31
2022-08-05T11:31:57.405Z,97395.16
2022-08-05T11:34:47.564Z,97389.41
2022-08-05T11:38:28.524Z,97401.25
2022-08-05T11:41:54.673Z,97398.63
2022-08-05T11:44:08.326Z,97395.72
2022-08-05T11:47:10.314Z,97395.13
2022-08-05T11:49:28.414Z,97396.66
2022-08-05T11:51:57.305Z,97400.69
2022-08-05T11:54:33.131Z,97394.03
2022-08-05T11:57:24.522Z,97400.47
2022-08-05T11:59:53.814Z,97395.25
2022-08-05T12:02:30.381Z,97398.16
2022-08-05T12:05:07.405Z,97391.13
2022-08-05T12:08:03.519Z,97383.63
2022-08-05T12:10:43.533Z,97377.59
2022-08-05T12:13:17.368Z,97379.31
2022-08-05T12:15:56.334Z,97393.13
2022-08-05T12:18:33.009Z,97392.44
2022-08-05T12:21:12.532Z,97394.09
2022-08-05T12:23:43.163Z,97390.38
2022-08-05T12:26:11.319Z,97389.41
2022-08-05T12:28:39.777Z,97402.59
2022-08-05T12:31:08.311Z,97401.38
2022-08-05T12:33:38.807Z,97384.63
2022-08-05T12:36:09.105Z,97394.56
2022-08-05T12:38:41.319Z,97390.59
2022-08-05T12:41:13.280Z,97385.31
2022-08-05T12:43:56.784Z,97390.06
2022-08-05T12:46:29.525Z,97385.81
2022-08-05T12:49:01.140Z,97381.00
2022-08-05T12:52:14.426Z,97374.84
2022-08-05T12:54:38.370Z,97386.31
2022-08-05T12:57:09.618Z,97380.72
2022-08-05T13:00:09.048Z,97376.69
2022-08-05T13:02:39.862Z,97373.84
2022-08-05T13:05:12.574Z,97377.72
2022-08-05T13:07:59.839Z,97383.88
2022-08-05T13:10:33.091Z,97380.75
2022-08-05T13:13:01.064Z,97375.91
2022-08-05T13:15:41.183Z,97372.59
2022-08-05T13:18:10.569Z,97373.19
2022-08-05T13:20:40.200Z,97365.72
2022-08-05T13:23:08.543Z,97362.94
2022-08-05T13:25:58.860Z,97369.22
2022-08-05T13:28:27.203Z,97364.72
2022-08-05T13:30:55.495Z,97362.66
2022-08-05T13:34:21.828Z,97360.53
2022-08-05T13:36:14.519Z,97364.59
2022-08-05T13:38:45.291Z,97355.94
2022-08-05T13:41:22.538Z,97359.53
2022-08-05T13:43:55.138Z,97353.34
2022-08-05T13:46:37.896Z,97351.28
2022-08-05T13:49:12.023Z,97349.00
2022-08-05T13:51:46.050Z,97341.13
2022-08-05T13:54:16.538Z,97337.38
2022-08-05T13:56:50.672Z,97341.97
2022-08-05T13:59:24.085Z,97343.91
2022-08-05T14:01:57.968Z,97334.66
2022-08-05T14:04:49.660Z,97340.06
2022-08-05T14:07:25.398Z,97337.72
2022-08-05T14:10:09.480Z,97346.09
2022-08-05T14:12:42.626Z,97338.56
2022-08-05T14:16:08.069Z,97328.78
2022-08-05T14:18:00.667Z,97340.94
2022-08-05T14:20:29.602Z,97336.97
2022-08-05T14:22:58.500Z,97340.34
2022-08-05T14:25:27.951Z,97336.16
2022-08-05T14:27:58.444Z,97332.03
2022-08-05T14:30:27.805Z,97328.38
2022-08-05T14:32:56.743Z,97331.53
2022-08-05T14:35:37.484Z,97331.00
2022-08-05T14:38:32.168Z,97327.59
2022-08-05T14:41:06.072Z,97316.69
2022-08-05T14:43:59.296Z,97324.66
2022-08-05T14:46:28.913Z,97325.25
2022-08-05T14:48:59.691Z,97326.09
2022-08-05T14:51:35.841Z,97326.28
2022-08-05T14:54:26.114Z,97328.19
2022-08-05T14:56:54.744Z,97328.91
2022-08-05T14:59:25.236Z,97328.06
2022-08-05T15:01:58.166Z,97323.28
2022-08-05T15:04:28.898Z,97332.50
2022-08-05T15:06:57.746Z,97336.56
2022-08-05T15:09:52.367Z,97336.22
2022-08-05T15:12:26.887Z,97331.53
2022-08-05T15:14:58.410Z,97334.22
2022-08-05T15:17:45.961Z,97328.78
2022-08-05T15:20:19.038Z,97336.81
2022-08-05T15:22:54.171Z,97349.78
2022-08-05T15:25:51.637Z,97344.16
2022-08-05T15:28:14.235Z,97344.75
2022-08-05T15:30:45.881Z,97351.50
2022-08-05T15:34:04.023Z,97361.50
2022-08-05T15:36:04.181Z,97351.81
2022-08-05T15:38:36.615Z,97358.56
2022-08-05T15:41:22.565Z,97351.91
2022-08-05T15:43:54.472Z,97368.44
2022-08-05T15:46:25.268Z,97366.19
2022-08-05T15:48:58.841Z,97369.09
2022-08-05T15:52:13.487Z,97370.97
2022-08-05T15:54:19.050Z,97373.28
2022-08-05T15:56:47.574Z,97378.81
2022-08-05T15:59:21.638Z,97374.22
2022-08-05T16:01:53.710Z,97384.16
2022-08-05T16:04:25.565Z,97376.47
2022-08-05T16:06:55.474Z,97383.41
2022-08-05T16:09:24.778Z,97385.59
2022-08-05T16:11:54.097Z,97394.38
2022-08-05T16:14:22.518Z,97392.50
2022-08-05T16:16:52.548Z,97386.84
2022-08-05T16:20:03.640Z,97393.75
2022-08-05T16:22:10.769Z,97402.84
2022-08-05T16:24:51.764Z,97398.47
2022-08-05T16:27:47.206Z,97405.50
2022-08-05T16:30:23.206Z,97403.66
2022-08-05T16:32:56.172Z,97414.91
2022-08-05T16:35:27.598Z,97422.63
2022-08-05T16:38:13.676Z,97424.72
2022-08-05T16:40:51.881Z,97436.50
2022-08-05T16:43:24.197Z,97430.00
2022-08-05T16:46:06.893Z,97426.34
2022-08-05T16:48:43.649Z,97446.53
2022-08-05T16:51:11.960Z,97440.59
2022-08-05T16:54:05.770Z,97444.47
2022-08-05T16:56:33.620Z,97446.16
2022-08-05T16:59:08.515Z,97445.38
2022-08-05T17:01:54.044Z,97448.28
2022-08-05T17:04:27.648Z,97446.50
2022-08-05T17:07:00.454Z,97457.09
2022-08-05T17:09:30.030Z,97458.00
2022-08-05T17:11:59.489Z,97461.84
2022-08-05T17:14:36.773Z,97459.38
2022-08-05T17:17:09.468Z,97460.16
2022-08-05T17:19:46.407Z,97475.09
2022-08-05T17:22:24.723Z,97463.69
2022-08-05T17:24:57.563Z,97468.84
2022-08-05T17:27:27.475Z,97466.31
2022-08-05T17:30:02.793Z,97463.53
2022-08-05T17:32:31.091Z,97468.78
2022-08-05T17:35:04.358Z,97457.91
2022-08-05T17:37:40.825Z,97457.31
2022-08-05T17:40:12.788Z,97464.34
2022-08-05T17:42:49.702Z,97468.44
2022-08-05T17:45:21.815Z,97472.81
2022-08-05T17:47:54.553Z,97471.38
2022-08-05T17:50:30.141Z,97481.59
2022-08-05T17:53:00.489Z,97477.41
2022-08-05T17:55:37.257Z,97489.16
2022-08-05T17:58:09.805Z,97494.25
2022-08-05T18:00:44.628Z,97502.06
2022-08-05T18:06:11.775Z,97503.16
2022-08-05T18:08:52.603Z,97504.31
2022-08-05T18:11:24.010Z,97505.00
2022-08-05T18:14:03.452Z,97505.19
2022-08-05T18:16:32.523Z,97510.84
2022-08-05T18:19:00.694Z,97510.13
2022-08-05T18:22:08.474Z,97521.09
2022-08-05T18:24:18.664Z,97521.22
2022-08-05T18:26:49.091Z,97516.88
2022-08-05T18:29:17.496Z,97512.19
2022-08-05T18:32:05.969Z,97517.56
2022-08-05T18:34:41.122Z,97515.06
2022-08-05T18:37:16.931Z,97526.06
2022-08-05T18:40:31.228Z,97524.91
2022-08-05T18:42:48.693Z,97522.88
2022-08-05T18:45:17.027Z,97530.47
2022-08-05T18:47:46.422Z,97531.03
2022-08-05T18:50:42.374Z,97533.31
2022-08-05T18:53:22.203Z,97528.91
2022-08-05T18:55:52.633Z,97528.19
2022-08-05T18:58:27.134Z,97529.44
2022-08-05T19:00:57.901Z,97534.56
2022-08-05T19:03:52.682Z,97541.78
2022-08-05T19:06:21.655Z,97546.69
2022-08-05T19:08:51.813Z,97558.75
2022-08-05T19:11:27.890Z,97557.34
2022-08-05T19:14:00.912Z,97556.25
2022-08-05T19:16:46.603Z,97564.97
2022-08-05T19:19:15.602Z,97580.84
2022-08-05T19:21:49.976Z,97581.66
2022-08-05T19:24:34.488Z,97587.22
2022-08-05T19:27:03.993Z,97598.38
2022-08-05T19:29:36.385Z,97597.41
2022-08-05T19:32:08.539Z,97601.97
2022-08-05T19:34:39.687Z,97634.47
2022-08-05T19:37:09.984Z,97678.56
2022-08-05T19:39:45.966Z,97681.41
2022-08-05T19:42:19.512Z,97679.72
2022-08-05T19:45:06.113Z,97690.03
2022-08-05T19:47:37.178Z,97685.69
2022-08-05T19:50:07.718Z,97681.03
2022-08-05T19:52:40.260Z,97691.50
2022-08-05T19:56:12.511Z,97699.41
2022-08-05T19:58:07.124Z,97712.75
2022-08-05T20:00:47.196Z,97724.25
2022-08-05T20:03:16.118Z,97741.47
2022-08-05T20:05:51.257Z,97759.09
2022-08-05T20:08:19.963Z,97770.72
2022-08-05T20:10:49.927Z,97774.63
2022-08-05T20:13:55.011Z,97768.06
2022-08-05T20:16:07.959Z,97766.16
2022-08-05T20:18:36.920Z,97762.69
2022-08-05T20:21:07.703Z,97755.78
2022-08-05T20:23:39.585Z,97754.72
2022-08-05T20:26:19.143Z,97754.72
2022-08-05T20:28:48.792Z,97751.88
2022-08-05T20:31:17.046Z,97764.91
2022-08-05T20:33:45.932Z,97756.94
2022-08-05T20:36:16.385Z,97763.44
2022-08-05T20:38:54.497Z,97769.44
2022-08-05T20:41:44.211Z,97784.44
2022-08-05T20:44:18.707Z,97771.28
2022-08-05T20:46:58.657Z,97756.19
2022-08-05T20:49:26.972Z,97754.13
2022-08-05T20:51:55.069Z,97760.69
2022-08-05T20:54:24.643Z,97776.75
2022-08-05T20:56:54.349Z,97795.75
2022-08-05T20:59:26.407Z,97828.16
2022-08-05T21:01:57.997Z,97833.44
2022-08-05T21:04:27.343Z,97793.34
2022-08-05T21:06:56.000Z,97776.41
2022-08-05T21:09:24.370Z,97777.41
2022-08-05T21:12:08.914Z,97777.59
2022-08-05T21:14:39.967Z,97780.00
2022-08-05T21:17:08.027Z,97788.28
2022-08-05T21:19:46.726Z,97803.50
2022-08-05T21:22:17.798Z,97815.81
2022-08-05T21:24:48.762Z,97827.94
2022-08-05T21:27:25.381Z,97842.84
2022-08-05T21:29:56.625Z,97857.47
2022-08-05T21:32:26.900Z,97862.19
2022-08-05T21:35:08.724Z,97860.88
2022-08-05T21:37:52.641Z,97844.63
2022-08-05T21:40:22.187Z,97848.63
2022-08-05T21:42:53.705Z,97859.84
2022-08-05T21:45:25.104Z,97853.47
2022-08-05T21:48:10.248Z,97863.97
2022-08-05T21:50:42.046Z,97876.22
2022-08-05T21:53:21.225Z,97871.09
2022-08-05T21:56:05.312Z,97879.63
2022-08-05T21:58:36.601Z,97871.63
2022-08-05T22:01:05.613Z,97875.59
2022-08-05T22:03:48.741Z,97880.53
2022-08-05T22:06:35.324Z,97872.88
2022-08-05T22:09:14.782Z,97899.97
2022-08-05T22:11:43.610Z,97905.09
2022-08-05T22:14:37.337Z,97919.50
2022-08-05T22:17:07.555Z,97924.56
2022-08-05T22:20:02.662Z,97929.16
2022-08-05T22:22:27.946Z,97929.63
2022-08-05T22:25:18.000Z,97937.47
2022-08-05T22:28:09.384Z,97913.00
2022-08-05T22:30:43.994Z,97916.06
2022-08-05T22:33:56.303Z,97930.47
2022-08-05T22:36:14.443Z,97938.09
2022-08-05T22:38:42.984Z,97928.50
2022-08-05T22:41:10.983Z,97928.28
2022-08-05T22:43:40.619Z,97932.72
2022-08-05T22:46:13.779Z,97925.88
2022-08-05T22:48:51.812Z,97926.19
2022-08-05T22:51:23.356Z,97920.69
2022-08-05T22:54:07.995Z,97932.78
2022-08-05T22:56:36.341Z,97931.50
2022-08-05T22:59:45.009Z,97940.84
2022-08-05T23:02:05.453Z,97943.50
2022-08-05T23:04:34.850Z,97955.03
2022-08-05T23:07:03.067Z,97956.34
2022-08-05T23:09:58.152Z,97971.31
2022-08-05T23:12:24.031Z,97968.47
2022-08-05T23:14:52.492Z,97972.94
2022-08-05T23:17:32.706Z,97972.63
2022-08-05T23:20:16.401Z,97974.88
2022-08-05T23:22:47.197Z,97986.44
2022-08-05T23:25:52.435Z,98001.28
2022-08-05T23:28:06.742Z,98017.63
2022-08-05T23:30:40.585Z,98040.53
2022-08-05T23:33:22.564Z,98054.72
2022-08-05T23:36:02.200Z,98028.41
2022-08-05T23:38:30.593Z,98004.22
2022-08-05T23:40:58.441Z,97991.44
2022-08-05T23:44:03.045Z,98005.97
2022-08-05T23:46:21.336Z,98021.16
2022-08-05T23:49:00.068Z,98038.25
2022-08-05T23:51:54.834Z,98041.19
2022-08-05T23:54:26.487Z,98029.00
2022-08-05T23:57:03.742Z,98032.25
